createdAt,value
2018-02-14T00:02:18.762Z,76.30
2018-02-14T00:04:47.836Z,76.18
2018-02-14T00:07:17.024Z,75.89
2018-02-14T00:09:46.230Z,76.15
2018-02-14T00:12:15.651Z,75.99
2018-02-14T00:14:44.724Z,76.08
2018-02-14T00:17:13.769Z,76.13
2018-02-14T00:19:42.744Z,76.03
2018-02-14T00:22:11.735Z,76.00
2018-02-14T00:24:41.080Z,76.03
2018-02-14T00:27:10.213Z,75.70
2018-02-14T00:29:39.659Z,76.07
2018-02-14T00:32:11.658Z,75.67
2018-02-14T00:34:40.772Z,75.76
2018-02-14T00:37:09.781Z,75.54
2018-02-14T00:39:38.816Z,75.55
2018-02-14T00:42:07.837Z,75.43
2018-02-14T00:44:37.552Z,75.88
2018-02-14T00:47:06.754Z,75.74
2018-02-14T00:49:36.551Z,75.70
2018-02-14T00:52:05.754Z,75.73
2018-02-14T00:54:35.766Z,75.77
2018-02-14T00:57:04.909Z,75.92
2018-02-14T00:59:34.521Z,75.79
2018-02-14T01:02:04.022Z,75.82
2018-02-14T01:04:33.659Z,75.45
2018-02-14T01:07:02.750Z,75.81
2018-02-14T01:09:31.968Z,75.61
2018-02-14T01:12:01.094Z,75.52
2018-02-14T01:14:30.577Z,75.69
2018-02-14T01:16:59.795Z,75.68
2018-02-14T01:19:28.775Z,75.66
2018-02-14T01:21:57.773Z,75.66
2018-02-14T01:24:27.092Z,75.44
2018-02-14T01:26:57.555Z,75.42
2018-02-14T01:29:26.781Z,75.59
2018-02-14T01:31:55.753Z,75.61
2018-02-14T01:34:24.750Z,75.54
2018-02-14T01:36:53.761Z,75.52
2018-02-14T01:39:22.764Z,75.79
2018-02-14T01:41:51.740Z,75.56
2018-02-14T01:44:20.756Z,75.81
2018-02-14T01:46:49.727Z,75.72
2018-02-14T01:49:18.736Z,75.79
2018-02-14T01:51:47.744Z,75.89
2018-02-14T01:56:06.492Z,75.57
2018-02-14T01:59:57.782Z,75.87
2018-02-14T02:15:05.570Z,75.52
2018-02-14T02:17:35.748Z,75.65
2018-02-14T02:20:05.502Z,74.76
2018-02-14T02:22:34.853Z,75.31
2018-02-14T02:25:03.775Z,75.37
2018-02-14T02:27:32.811Z,75.18
2018-02-14T02:30:01.949Z,75.34
2018-02-14T02:32:31.209Z,75.34
2018-02-14T02:35:00.787Z,75.33
2018-02-14T02:37:29.907Z,75.09
2018-02-14T02:40:05.349Z,75.15
2018-02-14T02:42:34.778Z,75.23
2018-02-14T02:45:03.767Z,74.91
2018-02-14T02:47:32.780Z,75.21
2018-02-14T02:50:01.841Z,75.25
2018-02-14T02:52:30.823Z,74.68
2018-02-14T02:54:59.819Z,75.08
2018-02-14T02:59:07.546Z,75.06
2018-02-14T03:01:37.669Z,75.10
2018-02-14T03:04:07.692Z,74.95
2018-02-14T03:06:37.485Z,74.99
2018-02-14T03:09:07.348Z,75.06
2018-02-14T03:11:37.570Z,74.97
2018-02-14T03:22:21.686Z,75.19
2018-02-14T03:24:51.218Z,75.33
2018-02-14T03:27:20.926Z,75.41
2018-02-14T03:29:50.462Z,75.36
2018-02-14T03:49:29.789Z,75.04
2018-02-14T03:51:59.411Z,75.47
2018-02-14T03:54:29.908Z,75.51
2018-02-14T03:57:02.726Z,75.38
2018-02-14T03:59:32.529Z,75.56
2018-02-14T04:02:02.540Z,75.52
2018-02-14T04:04:31.789Z,75.46
2018-02-14T04:07:00.777Z,75.51
2018-02-14T04:09:29.801Z,75.54
2018-02-14T04:11:58.806Z,75.68
2018-02-14T04:14:27.821Z,75.58
2018-02-14T04:16:56.787Z,75.61
2018-02-14T04:19:25.775Z,75.76
2018-02-14T04:21:54.803Z,75.66
2018-02-14T04:24:23.818Z,75.64
2018-02-14T04:26:53.127Z,75.25
2018-02-14T04:29:22.686Z,75.78
2018-02-14T04:31:51.746Z,75.52
2018-02-14T04:34:20.745Z,75.22
2018-02-14T04:36:49.758Z,75.66
2018-02-14T04:39:18.771Z,75.56
2018-02-14T04:41:47.812Z,75.43
2018-02-14T04:44:16.777Z,75.56
2018-02-14T04:46:45.854Z,75.59
2018-02-14T04:49:14.846Z,75.56
2018-02-14T04:51:43.954Z,75.61
2018-02-14T04:54:13.157Z,75.65
2018-02-14T04:56:42.700Z,75.56
2018-02-14T04:59:11.836Z,75.74
2018-02-14T05:01:40.822Z,75.43
2018-02-14T05:04:09.813Z,75.29
2018-02-14T05:06:38.842Z,75.63
2018-02-14T05:09:07.990Z,75.64
2018-02-14T05:11:37.252Z,75.51
2018-02-14T05:14:06.801Z,75.35
2018-02-14T05:16:35.882Z,75.29
2018-02-14T05:19:05.074Z,75.22
2018-02-14T05:21:34.252Z,74.96
2018-02-14T05:24:03.831Z,75.22
2018-02-14T05:26:32.842Z,75.25
2018-02-14T05:29:03.898Z,75.24
2018-02-14T05:31:33.208Z,75.17
2018-02-14T05:34:03.232Z,75.36
2018-02-14T05:36:32.836Z,75.14
2018-02-14T05:39:02.350Z,75.24
2018-02-14T05:41:32.234Z,74.90
2018-02-14T05:44:01.865Z,75.17
2018-02-14T05:46:31.866Z,75.22
2018-02-14T05:49:04.886Z,75.13
2018-02-14T05:51:33.901Z,75.20
2018-02-14T05:54:02.869Z,75.03
2018-02-14T05:56:31.888Z,74.77
2018-02-14T05:59:01.262Z,75.00
2018-02-14T06:01:30.764Z,74.93
2018-02-14T06:03:59.770Z,75.08
2018-02-14T06:06:28.782Z,75.21
2018-02-14T06:08:58.248Z,75.06
2018-02-14T06:11:27.808Z,75.13
2018-02-14T06:13:57.106Z,75.06
2018-02-14T06:16:26.789Z,74.75
2018-02-14T06:19:04.174Z,75.05
2018-02-14T06:21:34.303Z,74.75
2018-02-14T06:24:03.857Z,74.91
2018-02-14T06:26:33.850Z,74.99
2018-02-14T06:29:06.822Z,74.94
2018-02-14T06:31:36.816Z,75.00
2018-02-14T06:34:06.754Z,75.13
2018-02-14T06:36:37.362Z,75.04
2018-02-14T06:39:07.268Z,75.19
2018-02-14T06:41:36.935Z,75.17
2018-02-14T06:44:06.546Z,75.04
2018-02-14T06:46:36.887Z,75.22
2018-02-14T06:49:07.971Z,75.22
2018-02-14T06:51:42.669Z,75.28
2018-02-14T06:54:14.721Z,75.19
2018-02-14T06:56:47.084Z,75.28
2018-02-14T06:59:19.316Z,75.29
2018-02-14T07:01:52.704Z,75.37
2018-02-14T07:04:27.792Z,75.27
2018-02-14T07:06:58.531Z,75.34
2018-02-14T07:09:29.344Z,75.16
2018-02-14T07:12:00.086Z,75.45
2018-02-14T07:14:30.532Z,75.37
2018-02-14T07:17:08.684Z,75.25
2018-02-14T07:19:38.779Z,75.28
2018-02-14T07:22:08.609Z,75.45
2018-02-14T07:24:38.776Z,75.36
2018-02-14T07:27:08.700Z,75.33
2018-02-14T07:29:38.654Z,75.21
2018-02-14T07:32:08.455Z,75.22
2018-02-14T07:34:38.485Z,75.24
2018-02-14T07:37:11.972Z,74.75
2018-02-14T07:39:42.603Z,74.93
2018-02-14T07:42:14.486Z,75.16
2018-02-14T07:44:44.856Z,75.37
2018-02-14T07:47:15.041Z,75.02
2018-02-14T07:49:46.453Z,75.18
2018-02-14T07:52:17.478Z,75.15
2018-02-14T07:54:47.970Z,75.30
2018-02-14T07:57:18.482Z,75.29
2018-02-14T07:59:49.899Z,75.37
2018-02-14T08:02:20.656Z,75.12
2018-02-14T08:04:51.721Z,75.06
2018-02-14T08:07:21.502Z,74.83
2018-02-14T08:09:52.565Z,74.97
2018-02-14T08:12:22.693Z,74.80
2018-02-14T08:14:52.864Z,74.85
2018-02-14T08:17:22.893Z,74.77
2018-02-14T08:19:52.972Z,74.86
2018-02-14T08:22:23.041Z,74.97
2018-02-14T08:24:55.519Z,74.86
2018-02-14T08:27:26.257Z,74.69
2018-02-14T08:29:57.341Z,75.04
2018-02-14T08:32:27.894Z,74.93
2018-02-14T08:34:58.571Z,74.93
2018-02-14T08:37:29.738Z,75.07
2018-02-14T08:40:02.186Z,74.73
2018-02-14T08:42:34.800Z,75.24
2018-02-14T08:45:09.731Z,74.72
2018-02-14T08:47:43.083Z,75.12
2018-02-14T08:50:16.831Z,75.19
2018-02-14T08:52:49.803Z,75.24
2018-02-14T08:55:20.000Z,75.25
2018-02-14T08:57:50.039Z,74.87
2018-02-14T09:00:20.719Z,74.93
2018-02-14T09:02:51.017Z,74.74
2018-02-14T09:05:21.332Z,75.21
2018-02-14T09:07:51.413Z,75.10
2018-02-14T09:11:26.495Z,75.03
2018-02-14T09:21:06.556Z,74.66
2018-02-14T09:23:39.850Z,74.81
2018-02-14T09:26:10.837Z,74.80
2018-02-14T09:28:41.477Z,74.40
2018-02-14T09:31:11.934Z,74.53
2018-02-14T09:33:42.848Z,73.54
2018-02-14T09:36:13.822Z,74.17
2018-02-14T09:38:43.685Z,74.71
2018-02-14T09:41:15.086Z,74.77
2018-02-14T09:43:45.862Z,73.87
2018-02-14T09:46:15.820Z,74.27
2018-02-14T09:48:45.807Z,74.18
2018-02-14T09:51:15.727Z,74.01
2018-02-14T09:53:45.558Z,74.25
2018-02-14T09:56:15.441Z,74.03
2018-02-14T09:58:45.439Z,74.28
2018-02-14T10:01:15.653Z,73.96
2018-02-14T10:03:45.947Z,74.48
2018-02-14T10:06:15.851Z,74.07
2018-02-14T10:08:45.808Z,73.94
2018-02-14T10:11:15.935Z,74.38
2018-02-14T10:13:45.972Z,73.64
2018-02-14T10:16:15.929Z,74.52
2018-02-14T10:18:45.647Z,74.32
2018-02-14T10:21:15.762Z,74.24
2018-02-14T10:23:45.721Z,73.75
2018-02-14T10:26:15.408Z,74.17
2018-02-14T10:28:46.076Z,74.40
2018-02-14T10:31:15.804Z,74.19
2018-02-14T10:33:45.357Z,74.14
2018-02-14T10:36:14.806Z,74.30
2018-02-14T10:38:46.411Z,73.77
2018-02-14T10:41:20.067Z,74.38
2018-02-14T10:43:53.665Z,74.16
2018-02-14T10:46:23.721Z,73.90
2018-02-14T10:48:54.330Z,74.28
2018-02-14T10:51:24.766Z,73.71
2018-02-14T10:53:55.375Z,73.82
2018-02-14T10:56:27.703Z,74.20
2018-02-14T10:58:57.721Z,74.39
2018-02-14T11:01:33.498Z,74.05
2018-02-14T11:04:09.008Z,73.75
2018-02-14T11:06:39.766Z,73.83
2018-02-14T11:09:15.007Z,73.33
2018-02-14T11:11:45.977Z,72.39
2018-02-14T11:14:16.338Z,72.51
2018-02-14T11:16:47.161Z,72.66
2018-02-14T11:19:17.655Z,73.23
2018-02-14T11:21:47.904Z,72.96
2018-02-14T11:24:23.131Z,72.98
2018-02-14T11:26:53.617Z,73.07
2018-02-14T11:29:24.243Z,73.36
2018-02-14T11:31:54.127Z,73.13
2018-02-14T11:34:24.971Z,72.81
2018-02-14T11:36:54.966Z,73.09
2018-02-14T11:39:24.922Z,73.32
2018-02-14T11:41:54.928Z,73.26
2018-02-14T11:44:24.825Z,72.86
2018-02-14T11:46:56.169Z,72.00
2018-02-14T11:49:28.686Z,72.36
2018-02-14T11:52:01.977Z,72.95
2018-02-14T11:54:32.300Z,72.50
2018-02-14T11:57:04.010Z,72.34
2018-02-14T11:59:34.022Z,72.21
2018-02-14T12:02:04.006Z,72.32
2018-02-14T12:04:33.319Z,72.82
2018-02-14T12:07:04.723Z,72.15
2018-02-14T12:09:37.208Z,71.86
2018-02-14T12:12:10.525Z,71.51
2018-02-14T12:14:43.771Z,71.41
2018-02-14T12:17:15.968Z,71.30
2018-02-14T12:19:45.943Z,71.86
2018-02-14T12:22:15.916Z,72.04
2018-02-14T12:24:45.853Z,71.88
2018-02-14T12:27:15.838Z,71.54
2018-02-14T12:29:45.814Z,71.29
2018-02-14T12:32:15.807Z,70.57
2018-02-14T12:34:45.919Z,71.01
2018-02-14T12:37:17.000Z,71.77
2018-02-14T12:39:48.833Z,71.66
2018-02-14T12:42:21.812Z,71.82
2018-02-14T12:44:58.698Z,71.82
2018-02-14T12:47:31.054Z,72.00
2018-02-14T12:50:03.726Z,71.69
2018-02-14T12:52:36.691Z,71.61
2018-02-14T12:55:06.210Z,71.58
2018-02-14T12:57:35.918Z,71.34
2018-02-14T13:00:05.278Z,71.60
2018-02-14T13:02:34.764Z,71.58
2018-02-14T13:05:04.209Z,71.79
2018-02-14T13:07:33.768Z,71.45
2018-02-14T13:10:03.252Z,71.32
2018-02-14T13:12:33.111Z,71.45
2018-02-14T13:15:02.812Z,70.99
2018-02-14T13:17:32.364Z,71.30
2018-02-14T13:20:01.917Z,70.82
2018-02-14T13:22:31.244Z,71.45
2018-02-14T13:25:00.801Z,71.13
2018-02-14T13:27:30.145Z,71.19
2018-02-14T13:29:59.835Z,71.22
2018-02-14T13:32:29.280Z,71.31
2018-02-14T13:35:00.701Z,71.25
2018-02-14T13:37:34.550Z,71.28
2018-02-14T13:40:09.532Z,71.00
2018-02-14T13:42:39.337Z,71.23
2018-02-14T13:45:09.402Z,71.41
2018-02-14T13:47:39.287Z,71.46
2018-02-14T13:50:09.564Z,71.15
2018-02-14T13:52:39.454Z,71.53
2018-02-14T13:55:09.409Z,71.53
2018-02-14T13:57:39.283Z,71.31
2018-02-14T14:00:09.397Z,71.54
2018-02-14T14:02:40.667Z,70.88
2018-02-14T14:05:12.692Z,70.77
2018-02-14T14:07:47.746Z,71.12
2018-02-14T14:10:17.281Z,70.91
2018-02-14T14:12:46.885Z,70.98
2018-02-14T14:15:16.318Z,70.47
2018-02-14T14:17:47.224Z,70.87
2018-02-14T14:20:18.136Z,70.91
2018-02-14T14:22:47.822Z,71.03
2018-02-14T14:25:18.976Z,70.86
2018-02-14T14:27:49.003Z,70.89
2018-02-14T14:30:18.759Z,71.01
2018-02-14T14:32:48.277Z,71.15
2018-02-14T14:35:17.890Z,70.81
2018-02-14T14:37:47.264Z,70.49
2018-02-14T14:40:16.767Z,70.70
2018-02-14T14:42:46.542Z,71.08
2018-02-14T14:45:18.216Z,71.01
2018-02-14T14:47:47.784Z,70.85
2018-02-14T14:50:18.107Z,70.68
2018-02-14T14:52:48.320Z,70.21
2018-02-14T14:55:17.866Z,70.60
2018-02-14T14:57:47.143Z,70.52
2018-02-14T15:00:16.927Z,70.54
2018-02-14T15:02:46.317Z,71.06
2018-02-14T15:05:17.672Z,70.61
2018-02-14T15:07:47.451Z,70.19
2018-02-14T15:10:17.024Z,70.52
2018-02-14T15:12:46.657Z,70.73
2018-02-14T15:15:16.098Z,70.43
2018-02-14T15:17:45.803Z,70.08
2018-02-14T15:20:15.093Z,70.46
2018-02-14T15:22:44.862Z,70.42
2018-02-14T15:25:19.685Z,70.33
2018-02-14T15:27:52.802Z,70.62
2018-02-14T15:30:23.311Z,70.36
2018-02-14T15:32:53.220Z,70.18
2018-02-14T15:35:23.251Z,70.54
2018-02-14T15:37:55.658Z,70.57
2018-02-14T15:40:25.712Z,70.05
2018-02-14T15:42:55.548Z,69.92
2018-02-14T15:45:25.603Z,70.27
2018-02-14T15:47:55.444Z,70.21
2018-02-14T15:50:25.430Z,70.71
2018-02-14T15:52:55.361Z,70.60
2018-02-14T15:55:25.419Z,70.59
2018-02-14T15:57:55.329Z,71.08
2018-02-14T16:00:42.713Z,71.03
2018-02-14T16:03:13.450Z,71.03
2018-02-14T16:05:44.644Z,71.24
2018-02-14T16:08:15.009Z,71.28
2018-02-14T16:10:45.494Z,71.45
2018-02-14T16:13:16.346Z,71.42
2018-02-14T16:15:49.983Z,71.03
2018-02-14T16:18:22.218Z,71.30
2018-02-14T16:30:34.777Z,66.80
2018-02-14T16:33:04.566Z,66.64
2018-02-14T16:35:34.670Z,67.25
2018-02-14T16:38:04.715Z,66.93
2018-02-14T16:40:34.560Z,66.69
2018-02-14T16:43:05.443Z,66.82
2018-02-14T16:45:35.663Z,65.73
2018-02-14T16:48:05.825Z,65.11
2018-02-14T16:50:35.623Z,65.03
2018-02-14T16:53:06.136Z,66.80
2018-02-14T17:02:45.502Z,65.67
2018-02-14T17:05:15.537Z,64.52
2018-02-14T17:07:45.571Z,64.91
2018-02-14T17:10:17.221Z,65.19
2018-02-14T17:12:50.936Z,64.79
2018-02-14T17:15:25.729Z,66.15
2018-02-14T17:17:58.690Z,64.17
2018-02-14T17:20:33.610Z,65.41
2018-02-14T17:32:10.603Z,63.33
2018-02-14T17:34:40.205Z,64.90
2018-02-14T17:37:09.787Z,64.69
2018-02-14T17:39:39.310Z,64.26
2018-02-14T17:42:08.775Z,62.82
2018-02-14T17:44:38.097Z,65.50
2018-02-14T17:47:07.698Z,66.52
2018-02-14T17:49:37.256Z,63.61
2018-02-14T17:52:06.828Z,65.37
2018-02-14T17:54:36.257Z,66.41
2018-02-14T17:57:05.782Z,65.27
2018-02-14T17:59:35.129Z,63.74
2018-02-14T18:02:04.670Z,63.59
2018-02-14T18:04:33.752Z,64.54
2018-02-14T18:07:02.883Z,65.11
2018-02-14T18:09:31.850Z,67.02
2018-02-14T18:12:01.299Z,63.99
2018-02-14T18:14:30.749Z,65.86
2018-02-14T18:16:59.757Z,64.44
2018-02-14T18:19:28.853Z,64.33
2018-02-14T18:21:57.893Z,64.77
2018-02-14T18:24:27.073Z,63.41
2018-02-14T18:26:56.777Z,64.72
2018-02-14T18:29:26.099Z,63.77
2018-02-14T18:31:55.767Z,64.36
2018-02-14T18:34:25.225Z,63.80
2018-02-14T18:36:54.794Z,64.39
2018-02-14T18:39:23.972Z,64.15
2018-02-14T18:41:53.256Z,63.52
2018-02-14T18:44:22.810Z,63.89
2018-02-14T18:46:51.885Z,64.20
2018-02-14T18:49:21.451Z,64.74
2018-02-14T18:51:50.863Z,64.76
2018-02-14T18:54:19.848Z,64.36
2018-02-14T18:56:48.862Z,65.55
2018-02-14T18:59:17.886Z,65.13
2018-02-14T19:01:47.210Z,65.19
2018-02-14T19:04:16.799Z,64.79
2018-02-14T19:06:45.792Z,65.21
2018-02-14T19:09:14.753Z,64.90
2018-02-14T19:11:43.751Z,64.66
2018-02-14T19:14:12.768Z,65.01
2018-02-14T19:16:42.087Z,65.25
2018-02-14T19:19:11.970Z,65.22
2018-02-14T19:21:41.811Z,64.92
2018-02-14T19:24:10.846Z,64.79
2018-02-14T19:26:40.019Z,65.65
2018-02-14T19:29:09.282Z,65.01
2018-02-14T19:31:38.786Z,64.64
2018-02-14T19:34:07.877Z,65.73
2018-02-14T19:36:36.777Z,64.82
2018-02-14T19:39:05.802Z,65.16
2018-02-14T19:41:34.868Z,64.94
2018-02-14T19:44:03.865Z,64.00
2018-02-14T19:46:33.538Z,64.68
2018-02-14T19:49:02.834Z,65.20
2018-02-14T19:51:31.884Z,65.04
2018-02-14T19:54:00.875Z,65.92
2018-02-14T19:56:29.841Z,65.38
2018-02-14T19:58:58.775Z,65.20
2018-02-14T20:01:27.861Z,66.04
2018-02-14T20:03:56.869Z,65.88
2018-02-14T20:06:26.118Z,64.67
2018-02-14T20:08:55.727Z,66.42
2018-02-14T20:11:24.745Z,66.38
2018-02-14T20:13:53.815Z,65.91
2018-02-14T20:16:22.842Z,65.22
2018-02-14T20:18:51.869Z,65.40
2018-02-14T20:21:20.837Z,65.86
2018-02-14T20:23:50.281Z,66.45
2018-02-14T20:28:47.764Z,65.69
2018-02-14T20:31:16.842Z,65.27
2018-02-14T20:33:45.884Z,65.19
2018-02-14T20:36:14.890Z,65.18
2018-02-14T20:38:44.216Z,65.42
2018-02-14T20:41:13.740Z,66.01
2018-02-14T20:43:42.780Z,66.18
2018-02-14T20:46:11.798Z,65.42
2018-02-14T20:48:40.787Z,65.22
2018-02-14T20:51:10.060Z,65.27
2018-02-14T20:53:39.576Z,65.73
2018-02-14T20:56:08.746Z,65.08
2018-02-14T20:58:37.760Z,64.68
2018-02-14T21:01:06.806Z,65.96
2018-02-14T21:03:35.756Z,65.07
2018-02-14T21:06:05.662Z,65.27
2018-02-14T21:08:34.819Z,64.91
2018-02-14T21:11:03.805Z,65.12
2018-02-14T21:13:32.769Z,65.05
2018-02-14T21:16:01.747Z,65.77
2018-02-14T21:18:30.759Z,64.94
2018-02-14T21:20:59.786Z,65.43
2018-02-14T21:23:28.749Z,65.37
2018-02-14T21:25:58.076Z,65.62
2018-02-14T21:28:27.382Z,65.65
2018-02-14T21:30:56.760Z,65.85
2018-02-14T21:33:29.117Z,66.08
2018-02-14T21:35:58.670Z,65.03
2018-02-14T21:38:27.749Z,65.22
2018-02-14T21:40:56.736Z,65.44
2018-02-14T21:43:25.734Z,64.97
2018-02-14T21:45:54.746Z,64.92
2018-02-14T21:48:23.726Z,65.52
2018-02-14T21:50:53.242Z,65.20
2018-02-14T21:53:22.738Z,65.87
2018-02-14T21:55:51.777Z,65.52
2018-02-14T21:58:20.754Z,65.50
2018-02-14T22:00:49.747Z,65.28
2018-02-14T22:03:18.770Z,65.82
2018-02-14T22:05:47.760Z,65.70
2018-02-14T22:08:16.710Z,65.92
2018-02-14T22:10:45.726Z,65.52
2018-02-14T22:13:14.740Z,65.82
2018-02-14T22:15:43.737Z,65.29
2018-02-14T22:18:14.671Z,65.42
2018-02-14T22:20:43.755Z,65.39
2018-02-14T22:23:12.831Z,65.59
2018-02-14T22:25:41.755Z,65.49
2018-02-14T22:28:10.730Z,65.60
2018-02-14T22:30:39.748Z,65.35
2018-02-14T22:33:08.743Z,65.29
2018-02-14T22:35:37.767Z,65.69
2018-02-14T22:38:06.830Z,65.16
2018-02-14T22:40:35.734Z,65.24
2018-02-14T22:43:04.776Z,65.20
2018-02-14T22:45:33.843Z,65.72
2018-02-14T22:48:03.100Z,65.52
2018-02-14T22:50:32.033Z,65.59
2018-02-14T22:53:01.191Z,65.27
2018-02-14T22:55:30.727Z,65.30
2018-02-14T22:57:59.755Z,65.28
2018-02-14T23:00:29.775Z,65.30
2018-02-14T23:02:58.738Z,65.30
2018-02-14T23:05:30.032Z,65.79
2018-02-14T23:07:58.856Z,65.84
2018-02-14T23:10:27.855Z,65.88
2018-02-14T23:12:57.082Z,66.03
2018-02-14T23:15:26.270Z,66.02
2018-02-14T23:17:55.784Z,66.31
2018-02-14T23:20:24.763Z,66.26
2018-02-14T23:22:53.757Z,66.21
2018-02-14T23:25:22.783Z,66.47
2018-02-14T23:27:51.763Z,66.19
2018-02-14T23:30:20.764Z,66.33
2018-02-14T23:32:49.757Z,66.21
2018-02-14T23:35:18.766Z,66.22
2018-02-14T23:37:47.743Z,66.16
2018-02-14T23:40:16.731Z,66.54
2018-02-14T23:42:45.782Z,66.62
2018-02-14T23:45:14.795Z,66.51
2018-02-14T23:47:43.774Z,66.46
2018-02-14T23:50:13.033Z,66.44
2018-02-14T23:52:42.225Z,66.22
2018-02-14T23:55:11.782Z,66.46
2018-02-14T23:57:40.795Z,66.74
